sensor_id;sensor_type;location;lat;lon;timestamp;noise_LAeq;noise_LA_min;noise_LA_max;noise_LA01;noise_LA95
63692;Laerm;49838;51.798;10.954;2023-08-12T00:00:05;30.58;27.50;43.37;;
63692;Laerm;49838;51.798;10.954;2023-08-12T00:02:37;30.16;27.37;39.81;;
63692;Laerm;49838;51.798;10.954;2023-08-12T00:05:07;31.26;27.34;43.18;;
63692;Laerm;49838;51.798;10.954;2023-08-12T00:07:36;37.35;27.90;53.87;;
63692;Laerm;49838;51.798;10.954;2023-08-12T00:10:04;32.98;28.87;48.29;;
63692;Laerm;49838;51.798;10.954;2023-08-12T00:12:32;29.67;27.24;35.76;;
63692;Laerm;49838;51.798;10.954;2023-08-12T00:15:00;31.28;27.80;43.43;;
63692;Laerm;49838;51.798;10.954;2023-08-12T00:17:28;31.12;28.18;40.49;;
63692;Laerm;49838;51.798;10.954;2023-08-12T00:19:55;30.70;28.58;43.69;;
63692;Laerm;49838;51.798;10.954;2023-08-12T00:22:24;32.12;28.35;39.72;;
63692;Laerm;49838;51.798;10.954;2023-08-12T00:24:52;32.47;29.20;44.19;;
63692;Laerm;49838;51.798;10.954;2023-08-12T00:27:19;33.97;30.28;47.09;;
63692;Laerm;49838;51.798;10.954;2023-08-12T00:29:46;33.48;28.61;41.69;;
63692;Laerm;49838;51.798;10.954;2023-08-12T00:32:14;48.31;27.68;65.78;;
63692;Laerm;49838;51.798;10.954;2023-08-12T00:34:41;53.74;27.77;73.51;;
63692;Laerm;49838;51.798;10.954;2023-08-12T00:37:09;30.16;27.73;36.50;;
63692;Laerm;49838;51.798;10.954;2023-08-12T00:39:37;29.25;27.14;35.59;;
63692;Laerm;49838;51.798;10.954;2023-08-12T00:42:05;29.43;27.57;34.16;;
63692;Laerm;49838;51.798;10.954;2023-08-12T00:44:32;29.83;27.39;39.19;;
63692;Laerm;49838;51.798;10.954;2023-08-12T00:47:02;30.95;27.72;38.61;;
63692;Laerm;49838;51.798;10.954;2023-08-12T00:49:30;29.77;27.34;38.77;;
63692;Laerm;49838;51.798;10.954;2023-08-12T00:51:58;28.71;27.04;31.83;;
63692;Laerm;49838;51.798;10.954;2023-08-12T00:54:27;28.75;27.05;36.04;;
63692;Laerm;49838;51.798;10.954;2023-08-12T00:56:56;30.26;27.33;43.29;;
63692;Laerm;49838;51.798;10.954;2023-08-12T00:59:25;34.88;27.12;45.64;;
63692;Laerm;49838;51.798;10.954;2023-08-12T01:01:52;29.21;27.07;33.48;;
63692;Laerm;49838;51.798;10.954;2023-08-12T01:04:20;31.10;27.16;52.53;;
63692;Laerm;49838;51.798;10.954;2023-08-12T01:06:47;61.25;27.00;89.93;;
63692;Laerm;49838;51.798;10.954;2023-08-12T01:09:14;28.44;26.80;32.54;;
63692;Laerm;49838;51.798;10.954;2023-08-12T01:11:49;29.40;26.94;34.62;;
63692;Laerm;49838;51.798;10.954;2023-08-12T01:14:23;39.99;27.86;61.20;;
63692;Laerm;49838;51.798;10.954;2023-08-12T01:16:57;30.95;27.37;43.46;;
63692;Laerm;49838;51.798;10.954;2023-08-12T01:19:30;32.94;28.06;41.65;;
63692;Laerm;49838;51.798;10.954;2023-08-12T01:22:00;29.93;27.33;41.96;;
63692;Laerm;49838;51.798;10.954;2023-08-12T01:24:35;30.05;27.31;36.02;;
63692;Laerm;49838;51.798;10.954;2023-08-12T01:27:02;33.29;27.44;44.90;;
63692;Laerm;49838;51.798;10.954;2023-08-12T01:29:31;31.87;27.37;42.74;;
63692;Laerm;49838;51.798;10.954;2023-08-12T01:32:06;31.52;27.63;43.74;;
63692;Laerm;49838;51.798;10.954;2023-08-12T01:34:40;29.95;27.27;36.14;;
63692;Laerm;49838;51.798;10.954;2023-08-12T01:37:11;31.35;28.17;41.08;;
63692;Laerm;49838;51.798;10.954;2023-08-12T01:39:43;34.44;27.92;45.84;;
63692;Laerm;49838;51.798;10.954;2023-08-12T01:42:12;30.34;27.41;42.15;;
63692;Laerm;49838;51.798;10.954;2023-08-12T01:44:40;32.73;28.37;44.71;;
63692;Laerm;49838;51.798;10.954;2023-08-12T01:47:08;30.34;27.57;35.58;;
63692;Laerm;49838;51.798;10.954;2023-08-12T01:49:36;29.72;27.32;37.46;;
63692;Laerm;49838;51.798;10.954;2023-08-12T01:52:03;31.56;28.13;45.55;;
63692;Laerm;49838;51.798;10.954;2023-08-12T01:54:31;29.95;27.59;43.02;;
63692;Laerm;49838;51.798;10.954;2023-08-12T01:57:03;31.35;27.08;39.61;;
63692;Laerm;49838;51.798;10.954;2023-08-12T01:59:31;30.52;27.37;46.44;;
63692;Laerm;49838;51.798;10.954;2023-08-12T02:01:59;34.82;28.87;46.43;;
63692;Laerm;49838;51.798;10.954;2023-08-12T02:04:26;35.60;27.28;49.70;;
63692;Laerm;49838;51.798;10.954;2023-08-12T02:06:54;30.20;26.93;49.89;;
63692;Laerm;49838;51.798;10.954;2023-08-12T02:09:22;31.30;28.02;39.81;;
63692;Laerm;49838;51.798;10.954;2023-08-12T02:11:50;53.07;27.68;71.29;;
63692;Laerm;49838;51.798;10.954;2023-08-12T02:14:18;29.87;27.33;37.37;;
63692;Laerm;49838;51.798;10.954;2023-08-12T02:16:46;28.53;27.00;32.86;;
63692;Laerm;49838;51.798;10.954;2023-08-12T02:19:13;28.88;27.00;34.67;;
63692;Laerm;49838;51.798;10.954;2023-08-12T02:21:40;31.24;27.68;38.88;;
63692;Laerm;49838;51.798;10.954;2023-08-12T02:24:08;30.61;27.89;44.30;;
63692;Laerm;49838;51.798;10.954;2023-08-12T02:26:36;35.14;27.49;54.48;;
63692;Laerm;49838;51.798;10.954;2023-08-12T02:29:04;30.27;27.60;38.04;;
63692;Laerm;49838;51.798;10.954;2023-08-12T02:31:33;30.39;27.61;42.04;;
63692;Laerm;49838;51.798;10.954;2023-08-12T02:34:00;30.56;27.69;45.63;;
63692;Laerm;49838;51.798;10.954;2023-08-12T02:36:27;49.31;27.94;66.76;;
63692;Laerm;49838;51.798;10.954;2023-08-12T02:38:55;37.70;29.49;50.00;;
63692;Laerm;49838;51.798;10.954;2023-08-12T02:41:22;33.90;27.82;46.74;;
63692;Laerm;49838;51.798;10.954;2023-08-12T02:43:49;31.63;27.07;46.59;;
63692;Laerm;49838;51.798;10.954;2023-08-12T02:46:17;33.06;27.56;52.20;;
63692;Laerm;49838;51.798;10.954;2023-08-12T02:48:46;32.53;27.01;41.98;;
63692;Laerm;49838;51.798;10.954;2023-08-12T02:51:14;33.16;27.74;44.65;;
63692;Laerm;49838;51.798;10.954;2023-08-12T02:53:41;31.01;27.70;39.26;;
63692;Laerm;49838;51.798;10.954;2023-08-12T02:56:09;28.85;27.02;43.72;;
63692;Laerm;49838;51.798;10.954;2023-08-12T02:58:36;31.21;27.65;40.18;;
63692;Laerm;49838;51.798;10.954;2023-08-12T03:01:03;30.98;27.40;43.09;;
63692;Laerm;49838;51.798;10.954;2023-08-12T03:03:31;29.41;27.32;40.33;;
63692;Laerm;49838;51.798;10.954;2023-08-12T03:05:59;33.70;27.94;48.35;;
63692;Laerm;49838;51.798;10.954;2023-08-12T03:08:27;33.35;27.53;46.80;;
63692;Laerm;49838;51.798;10.954;2023-08-12T03:10:58;35.85;27.80;50.01;;
63692;Laerm;49838;51.798;10.954;2023-08-12T03:13:25;35.22;28.28;46.16;;
63692;Laerm;49838;51.798;10.954;2023-08-12T03:15:53;36.07;28.24;47.35;;
63692;Laerm;49838;51.798;10.954;2023-08-12T03:18:20;49.47;30.40;66.29;;
63692;Laerm;49838;51.798;10.954;2023-08-12T03:20:48;37.06;30.07;46.35;;
63692;Laerm;49838;51.798;10.954;2023-08-12T03:23:17;38.70;28.67;53.49;;
63692;Laerm;49838;51.798;10.954;2023-08-12T03:25:46;52.65;30.30;70.76;;
63692;Laerm;49838;51.798;10.954;2023-08-12T03:28:14;35.79;29.62;47.52;;
63692;Laerm;49838;51.798;10.954;2023-08-12T03:30:41;34.31;29.38;50.25;;
63692;Laerm;49838;51.798;10.954;2023-08-12T03:33:08;48.54;32.46;65.77;;
63692;Laerm;49838;51.798;10.954;2023-08-12T03:35:36;38.59;30.67;58.04;;
63692;Laerm;49838;51.798;10.954;2023-08-12T03:38:03;39.14;31.71;47.47;;
63692;Laerm;49838;51.798;10.954;2023-08-12T03:40:32;34.80;29.52;50.02;;
63692;Laerm;49838;51.798;10.954;2023-08-12T03:42:59;46.84;29.90;63.55;;
63692;Laerm;49838;51.798;10.954;2023-08-12T03:45:26;48.88;30.89;66.23;;
63692;Laerm;49838;51.798;10.954;2023-08-12T03:47:53;38.52;31.24;55.86;;
63692;Laerm;49838;51.798;10.954;2023-08-12T03:50:21;51.29;31.61;66.69;;
63692;Laerm;49838;51.798;10.954;2023-08-12T03:52:48;48.92;32.35;69.19;;
63692;Laerm;49838;51.798;10.954;2023-08-12T03:55:16;40.67;30.92;55.88;;
63692;Laerm;49838;51.798;10.954;2023-08-12T03:57:44;57.41;30.91;76.24;;
63692;Laerm;49838;51.798;10.954;2023-08-12T04:00:12;35.51;30.32;50.22;;
63692;Laerm;49838;51.798;10.954;2023-08-12T04:02:40;55.83;31.06;72.73;;
63692;Laerm;49838;51.798;10.954;2023-08-12T04:05:07;51.12;31.52;68.66;;
63692;Laerm;49838;51.798;10.954;2023-08-12T04:07:35;36.70;31.57;48.11;;
63692;Laerm;49838;51.798;10.954;2023-08-12T04:10:03;49.94;31.61;68.96;;
63692;Laerm;49838;51.798;10.954;2023-08-12T04:12:31;52.09;32.39;70.81;;
63692;Laerm;49838;51.798;10.954;2023-08-12T04:14:59;38.23;32.56;49.58;;
63692;Laerm;49838;51.798;10.954;2023-08-12T04:17:30;48.74;31.69;66.71;;
63692;Laerm;49838;51.798;10.954;2023-08-12T04:19:58;37.92;33.50;43.45;;
63692;Laerm;49838;51.798;10.954;2023-08-12T04:22:25;39.11;34.51;51.34;;
63692;Laerm;49838;51.798;10.954;2023-08-12T04:24:52;53.96;34.33;71.92;;
63692;Laerm;49838;51.798;10.954;2023-08-12T04:27:19;38.36;32.08;49.37;;
63692;Laerm;49838;51.798;10.954;2023-08-12T04:29:47;39.02;32.86;49.18;;
63692;Laerm;49838;51.798;10.954;2023-08-12T04:32:16;54.52;32.87;72.65;;
63692;Laerm;49838;51.798;10.954;2023-08-12T04:34:45;49.22;32.68;67.22;;
63692;Laerm;49838;51.798;10.954;2023-08-12T04:37:12;38.07;32.58;47.78;;
63692;Laerm;49838;51.798;10.954;2023-08-12T04:39:40;48.64;33.01;65.64;;
63692;Laerm;49838;51.798;10.954;2023-08-12T04:42:07;55.18;34.07;73.63;;
63692;Laerm;49838;51.798;10.954;2023-08-12T04:44:35;40.09;34.32;50.36;;
63692;Laerm;49838;51.798;10.954;2023-08-12T04:47:02;49.97;34.31;67.84;;
63692;Laerm;49838;51.798;10.954;2023-08-12T04:49:31;39.15;35.13;51.54;;
63692;Laerm;49838;51.798;10.954;2023-08-12T04:51:58;48.21;34.62;65.45;;
63692;Laerm;49838;51.798;10.954;2023-08-12T04:54:25;37.86;33.84;47.40;;
63692;Laerm;49838;51.798;10.954;2023-08-12T04:56:53;41.51;34.33;59.80;;
63692;Laerm;49838;51.798;10.954;2023-08-12T04:59:20;58.65;33.29;77.12;;
63692;Laerm;49838;51.798;10.954;2023-08-12T05:01:47;42.04;32.87;63.69;;
63692;Laerm;49838;51.798;10.954;2023-08-12T05:04:14;54.79;30.62;72.60;;
63692;Laerm;49838;51.798;10.954;2023-08-12T05:06:43;37.67;31.59;49.19;;
63692;Laerm;49838;51.798;10.954;2023-08-12T05:09:11;37.18;33.02;48.70;;
63692;Laerm;49838;51.798;10.954;2023-08-12T05:11:38;52.48;34.08;70.26;;
63692;Laerm;49838;51.798;10.954;2023-08-12T05:14:05;43.90;34.36;62.64;;
63692;Laerm;49838;51.798;10.954;2023-08-12T05:16:34;47.75;33.13;66.54;;
63692;Laerm;49838;51.798;10.954;2023-08-12T05:19:01;55.95;35.76;71.43;;
63692;Laerm;49838;51.798;10.954;2023-08-12T05:21:29;40.00;36.60;55.31;;
63692;Laerm;49838;51.798;10.954;2023-08-12T05:23:57;55.85;36.71;73.28;;
63692;Laerm;49838;51.798;10.954;2023-08-12T05:26:25;50.99;39.17;66.04;;
63692;Laerm;49838;51.798;10.954;2023-08-12T05:28:52;50.29;40.15;71.03;;
63692;Laerm;49838;51.798;10.954;2023-08-12T05:31:19;58.49;45.52;75.66;;
63692;Laerm;49838;51.798;10.954;2023-08-12T05:33:47;53.46;49.73;62.96;;
63692;Laerm;49838;51.798;10.954;2023-08-12T05:36:14;57.44;50.65;72.77;;
63692;Laerm;49838;51.798;10.954;2023-08-12T05:38:41;57.99;48.36;76.40;;
63692;Laerm;49838;51.798;10.954;2023-08-12T05:41:11;57.94;45.24;76.70;;
63692;Laerm;49838;51.798;10.954;2023-08-12T05:43:40;52.45;40.23;72.74;;
63692;Laerm;49838;51.798;10.954;2023-08-12T05:46:08;54.67;41.34;72.67;;
63692;Laerm;49838;51.798;10.954;2023-08-12T05:48:36;59.19;39.79;78.81;;
63692;Laerm;49838;51.798;10.954;2023-08-12T05:51:04;41.09;37.01;50.69;;
63692;Laerm;49838;51.798;10.954;2023-08-12T05:53:31;53.33;35.82;73.43;;
63692;Laerm;49838;51.798;10.954;2023-08-12T05:55:59;59.84;37.49;77.22;;
63692;Laerm;49838;51.798;10.954;2023-08-12T05:58:27;59.58;35.80;77.31;;
63692;Laerm;49838;51.798;10.954;2023-08-12T06:00:55;58.92;35.30;75.12;;
63692;Laerm;49838;51.798;10.954;2023-08-12T06:03:23;55.05;34.80;75.27;;
63692;Laerm;49838;51.798;10.954;2023-08-12T06:05:50;55.89;34.60;73.95;;
63692;Laerm;49838;51.798;10.954;2023-08-12T06:08:18;56.33;33.86;74.58;;
63692;Laerm;49838;51.798;10.954;2023-08-12T06:10:46;58.14;32.76;73.80;;
63692;Laerm;49838;51.798;10.954;2023-08-12T06:13:17;39.06;32.19;60.54;;
63692;Laerm;49838;51.798;10.954;2023-08-12T06:15:46;40.68;32.32;55.86;;
63692;Laerm;49838;51.798;10.954;2023-08-12T06:18:13;59.78;34.07;76.24;;
63692;Laerm;49838;51.798;10.954;2023-08-12T06:20:42;54.95;35.89;73.31;;
63692;Laerm;49838;51.798;10.954;2023-08-12T06:23:09;41.43;34.07;54.48;;
63692;Laerm;49838;51.798;10.954;2023-08-12T06:25:37;59.93;37.00;73.38;;
63692;Laerm;49838;51.798;10.954;2023-08-12T06:28:04;50.63;40.30;66.33;;
63692;Laerm;49838;51.798;10.954;2023-08-12T06:30:34;54.05;39.90;70.30;;
63692;Laerm;49838;51.798;10.954;2023-08-12T06:33:03;57.94;39.12;74.60;;
63692;Laerm;49838;51.798;10.954;2023-08-12T06:35:30;59.53;38.01;75.61;;
63692;Laerm;49838;51.798;10.954;2023-08-12T06:38:01;40.71;34.12;52.00;;
63692;Laerm;49838;51.798;10.954;2023-08-12T06:40:28;52.95;34.58;68.55;;
63692;Laerm;49838;51.798;10.954;2023-08-12T06:42:56;39.94;32.71;50.01;;
63692;Laerm;49838;51.798;10.954;2023-08-12T06:45:24;54.75;38.15;69.57;;
63692;Laerm;49838;51.798;10.954;2023-08-12T06:47:51;56.75;37.52;74.13;;
63692;Laerm;49838;51.798;10.954;2023-08-12T06:50:20;41.63;33.59;59.22;;
63692;Laerm;49838;51.798;10.954;2023-08-12T06:52:47;51.64;34.61;70.53;;
63692;Laerm;49838;51.798;10.954;2023-08-12T06:55:14;40.00;33.50;54.25;;
63692;Laerm;49838;51.798;10.954;2023-08-12T06:57:42;51.85;33.95;69.56;;
63692;Laerm;49838;51.798;10.954;2023-08-12T07:00:10;45.41;34.05;59.89;;
63692;Laerm;49838;51.798;10.954;2023-08-12T07:02:37;57.91;35.03;73.79;;
63692;Laerm;49838;51.798;10.954;2023-08-12T07:05:08;54.12;33.97;70.20;;
63692;Laerm;49838;51.798;10.954;2023-08-12T07:07:37;52.90;34.71;71.34;;
63692;Laerm;49838;51.798;10.954;2023-08-12T07:10:05;41.11;34.18;58.99;;
63692;Laerm;49838;51.798;10.954;2023-08-12T07:12:33;58.48;31.15;76.66;;
63692;Laerm;49838;51.798;10.954;2023-08-12T07:15:01;52.83;32.23;68.43;;
63692;Laerm;49838;51.798;10.954;2023-08-12T07:17:29;56.90;34.54;72.18;;
63692;Laerm;49838;51.798;10.954;2023-08-12T07:19:56;57.30;32.22;73.51;;
63692;Laerm;49838;51.798;10.954;2023-08-12T07:22:25;48.67;31.47;67.85;;
63692;Laerm;49838;51.798;10.954;2023-08-12T07:24:54;58.32;35.00;70.80;;
63692;Laerm;49838;51.798;10.954;2023-08-12T07:27:22;57.14;35.74;71.39;;
63692;Laerm;49838;51.798;10.954;2023-08-12T07:29:49;55.77;35.03;71.86;;
63692;Laerm;49838;51.798;10.954;2023-08-12T07:32:17;54.48;33.83;69.00;;
63692;Laerm;49838;51.798;10.954;2023-08-12T07:34:45;62.02;34.23;78.80;;
63692;Laerm;49838;51.798;10.954;2023-08-12T07:37:12;39.55;34.72;56.60;;
63692;Laerm;49838;51.798;10.954;2023-08-12T07:39:39;56.12;35.44;71.72;;
63692;Laerm;49838;51.798;10.954;2023-08-12T07:42:08;59.01;37.58;70.80;;
63692;Laerm;49838;51.798;10.954;2023-08-12T07:44:35;53.49;35.62;69.11;;
63692;Laerm;49838;51.798;10.954;2023-08-12T07:47:03;58.12;37.05;72.74;;
63692;Laerm;49838;51.798;10.954;2023-08-12T07:49:30;57.84;36.98;73.07;;
63692;Laerm;49838;51.798;10.954;2023-08-12T07:51:57;54.68;36.91;69.02;;
63692;Laerm;49838;51.798;10.954;2023-08-12T07:54:25;59.22;36.01;72.51;;
63692;Laerm;49838;51.798;10.954;2023-08-12T07:56:52;44.88;35.42;65.23;;
63692;Laerm;49838;51.798;10.954;2023-08-12T07:59:21;54.00;36.27;68.15;;
63692;Laerm;49838;51.798;10.954;2023-08-12T08:01:48;52.49;37.79;68.31;;
63692;Laerm;49838;51.798;10.954;2023-08-12T08:04:15;56.87;36.10;73.96;;
63692;Laerm;49838;51.798;10.954;2023-08-12T08:06:43;57.52;36.22;71.74;;
63692;Laerm;49838;51.798;10.954;2023-08-12T08:09:10;55.48;36.63;70.41;;
63692;Laerm;49838;51.798;10.954;2023-08-12T08:11:38;53.16;36.48;71.81;;
63692;Laerm;49838;51.798;10.954;2023-08-12T08:14:05;62.58;37.63;84.92;;
63692;Laerm;49838;51.798;10.954;2023-08-12T08:16:34;57.35;35.84;72.84;;
63692;Laerm;49838;51.798;10.954;2023-08-12T08:19:01;62.22;35.55;80.39;;
63692;Laerm;49838;51.798;10.954;2023-08-12T08:21:28;55.67;36.13;70.71;;
63692;Laerm;49838;51.798;10.954;2023-08-12T08:23:55;58.89;35.86;74.20;;
63692;Laerm;49838;51.798;10.954;2023-08-12T08:26:23;59.42;36.35;71.18;;
63692;Laerm;49838;51.798;10.954;2023-08-12T08:28:51;49.96;35.18;67.39;;
63692;Laerm;49838;51.798;10.954;2023-08-12T08:31:19;62.11;36.59;76.29;;
63692;Laerm;49838;51.798;10.954;2023-08-12T08:33:47;57.90;35.75;76.66;;
63692;Laerm;49838;51.798;10.954;2023-08-12T08:36:15;51.75;34.34;66.68;;
63692;Laerm;49838;51.798;10.954;2023-08-12T08:38:44;57.47;34.33;73.10;;
63692;Laerm;49838;51.798;10.954;2023-08-12T08:41:11;58.50;35.16;74.58;;
63692;Laerm;49838;51.798;10.954;2023-08-12T08:43:41;62.98;32.87;80.00;;
63692;Laerm;49838;51.798;10.954;2023-08-12T08:46:10;56.20;32.41;71.16;;
63692;Laerm;49838;51.798;10.954;2023-08-12T08:48:41;60.03;37.22;80.71;;
63692;Laerm;49838;51.798;10.954;2023-08-12T08:51:10;53.18;35.37;69.90;;
63692;Laerm;49838;51.798;10.954;2023-08-12T08:53:39;56.14;33.13;71.67;;
63692;Laerm;49838;51.798;10.954;2023-08-12T08:56:08;46.88;34.51;64.95;;
63692;Laerm;49838;51.798;10.954;2023-08-12T08:58:37;50.47;33.11;66.52;;
63692;Laerm;49838;51.798;10.954;2023-08-12T09:01:05;58.42;34.36;78.08;;
63692;Laerm;49838;51.798;10.954;2023-08-12T09:03:35;60.18;37.78;72.21;;
63692;Laerm;49838;51.798;10.954;2023-08-12T09:06:05;47.24;35.72;63.27;;
63692;Laerm;49838;51.798;10.954;2023-08-12T09:08:34;56.97;38.14;71.67;;
63692;Laerm;49838;51.798;10.954;2023-08-12T09:11:02;55.06;33.64;70.94;;
63692;Laerm;49838;51.798;10.954;2023-08-12T09:13:30;56.99;34.19;72.60;;
63692;Laerm;49838;51.798;10.954;2023-08-12T09:15:57;55.69;34.33;73.30;;
63692;Laerm;49838;51.798;10.954;2023-08-12T09:18:25;58.64;34.59;71.74;;
63692;Laerm;49838;51.798;10.954;2023-08-12T09:20:53;56.67;33.37;72.35;;
63692;Laerm;49838;51.798;10.954;2023-08-12T09:23:20;59.01;34.36;75.42;;
63692;Laerm;49838;51.798;10.954;2023-08-12T09:25:49;54.71;34.95;70.30;;
63692;Laerm;49838;51.798;10.954;2023-08-12T09:28:16;56.72;35.67;68.31;;
63692;Laerm;49838;51.798;10.954;2023-08-12T09:30:50;51.68;34.32;71.70;;
63692;Laerm;49838;51.798;10.954;2023-08-12T09:33:24;55.07;34.48;73.08;;
63692;Laerm;49838;51.798;10.954;2023-08-12T09:46:58;58.22;33.28;78.79;;
63692;Laerm;49838;51.798;10.954;2023-08-12T09:49:25;57.17;35.14;72.45;;
63692;Laerm;49838;51.798;10.954;2023-08-12T09:51:54;56.28;35.16;70.32;;
63692;Laerm;49838;51.798;10.954;2023-08-12T09:54:25;56.47;35.35;70.85;;
63692;Laerm;49838;51.798;10.954;2023-08-12T09:56:56;57.50;35.27;73.81;;
63692;Laerm;49838;51.798;10.954;2023-08-12T09:59:28;56.12;35.20;72.07;;
63692;Laerm;49838;51.798;10.954;2023-08-12T10:01:58;55.10;35.31;70.34;;
63692;Laerm;49838;51.798;10.954;2023-08-12T10:04:29;57.55;38.27;70.41;;
63692;Laerm;49838;51.798;10.954;2023-08-12T10:06:59;53.58;36.57;71.37;;
63692;Laerm;49838;51.798;10.954;2023-08-12T10:09:26;40.65;34.64;61.97;;
63692;Laerm;49838;51.798;10.954;2023-08-12T10:11:54;54.90;34.13;70.34;;
63692;Laerm;49838;51.798;10.954;2023-08-12T10:14:24;51.89;33.46;65.55;;
63692;Laerm;49838;51.798;10.954;2023-08-12T10:16:53;59.16;34.15;73.59;;
63692;Laerm;49838;51.798;10.954;2023-08-12T10:19:26;52.27;34.54;68.19;;
63692;Laerm;49838;51.798;10.954;2023-08-12T10:21:55;57.82;35.55;73.17;;
63692;Laerm;49838;51.798;10.954;2023-08-12T10:24:24;62.24;34.81;79.74;;
63692;Laerm;49838;51.798;10.954;2023-08-12T10:26:53;57.69;37.86;74.25;;
63692;Laerm;49838;51.798;10.954;2023-08-12T10:29:22;54.71;35.64;68.99;;
63692;Laerm;49838;51.798;10.954;2023-08-12T10:31:53;51.29;35.06;67.07;;
63692;Laerm;49838;51.798;10.954;2023-08-12T10:34:21;40.73;35.65;56.23;;
63692;Laerm;49838;51.798;10.954;2023-08-12T10:36:53;62.43;34.42;78.87;;
63692;Laerm;49838;51.798;10.954;2023-08-12T10:39:24;60.41;35.97;77.41;;
63692;Laerm;49838;51.798;10.954;2023-08-12T10:41:54;48.27;34.78;65.29;;
63692;Laerm;49838;51.798;10.954;2023-08-12T10:44:24;53.51;37.61;72.84;;
63692;Laerm;49838;51.798;10.954;2023-08-12T10:46:53;44.31;34.50;64.07;;
63692;Laerm;49838;51.798;10.954;2023-08-12T10:49:21;58.11;39.24;71.53;;
63692;Laerm;49838;51.798;10.954;2023-08-12T10:51:51;56.13;40.82;70.68;;
63692;Laerm;49838;51.798;10.954;2023-08-12T10:54:22;50.38;38.25;64.85;;
63692;Laerm;49838;51.798;10.954;2023-08-12T10:57:10;52.79;36.78;70.50;;
63692;Laerm;49838;51.798;10.954;2023-08-12T10:59:54;53.75;38.86;68.84;;
63692;Laerm;49838;51.798;10.954;2023-08-12T11:02:27;55.80;35.86;76.31;;
63692;Laerm;49838;51.798;10.954;2023-08-12T11:04:56;50.27;35.33;66.80;;
63692;Laerm;49838;51.798;10.954;2023-08-12T11:07:33;53.80;37.08;72.06;;
63692;Laerm;49838;51.798;10.954;2023-08-12T11:10:11;53.85;35.72;72.74;;
63692;Laerm;49838;51.798;10.954;2023-08-12T11:12:40;49.43;35.37;66.89;;
63692;Laerm;49838;51.798;10.954;2023-08-12T11:15:09;53.62;37.13;72.26;;
63692;Laerm;49838;51.798;10.954;2023-08-12T11:17:38;46.46;36.49;65.35;;
63692;Laerm;49838;51.798;10.954;2023-08-12T11:20:07;56.65;36.89;74.46;;
63692;Laerm;49838;51.798;10.954;2023-08-12T11:22:38;55.35;39.55;73.28;;
63692;Laerm;49838;51.798;10.954;2023-08-12T11:25:10;51.98;36.94;66.52;;
63692;Laerm;49838;51.798;10.954;2023-08-12T11:27:39;52.80;36.38;69.03;;
63692;Laerm;49838;51.798;10.954;2023-08-12T11:30:08;52.30;37.01;64.23;;
63692;Laerm;49838;51.798;10.954;2023-08-12T11:32:37;53.90;36.95;69.07;;
63692;Laerm;49838;51.798;10.954;2023-08-12T11:35:05;59.84;39.12;75.37;;
63692;Laerm;49838;51.798;10.954;2023-08-12T11:37:35;58.30;38.64;75.00;;
63692;Laerm;49838;51.798;10.954;2023-08-12T11:40:05;58.30;35.98;74.85;;
63692;Laerm;49838;51.798;10.954;2023-08-12T11:42:35;52.19;37.61;69.06;;
63692;Laerm;49838;51.798;10.954;2023-08-12T11:45:03;43.27;36.50;53.25;;
63692;Laerm;49838;51.798;10.954;2023-08-12T11:47:31;50.83;36.61;67.72;;
63692;Laerm;49838;51.798;10.954;2023-08-12T11:49:58;52.86;35.02;67.71;;
63692;Laerm;49838;51.798;10.954;2023-08-12T11:52:28;52.56;33.18;69.63;;
63692;Laerm;49838;51.798;10.954;2023-08-12T11:54:56;51.52;32.56;68.31;;
63692;Laerm;49838;51.798;10.954;2023-08-12T11:57:26;52.91;32.33;70.07;;
63692;Laerm;49838;51.798;10.954;2023-08-12T11:59:53;53.91;33.25;70.97;;
63692;Laerm;49838;51.798;10.954;2023-08-12T12:02:26;54.94;34.30;71.91;;
63692;Laerm;49838;51.798;10.954;2023-08-12T12:04:53;53.20;34.20;67.01;;
63692;Laerm;49838;51.798;10.954;2023-08-12T12:07:23;48.57;34.46;69.82;;
63692;Laerm;49838;51.798;10.954;2023-08-12T12:09:51;51.26;33.88;69.98;;
63692;Laerm;49838;51.798;10.954;2023-08-12T12:12:22;49.52;32.69;66.65;;
63692;Laerm;49838;51.798;10.954;2023-08-12T12:14:51;55.82;33.00;70.47;;
63692;Laerm;49838;51.798;10.954;2023-08-12T12:17:21;54.95;32.49;79.29;;
63692;Laerm;49838;51.798;10.954;2023-08-12T12:19:52;52.93;32.91;68.54;;
63692;Laerm;49838;51.798;10.954;2023-08-12T12:22:19;54.39;33.30;70.00;;
63692;Laerm;49838;51.798;10.954;2023-08-12T12:24:49;57.56;33.78;76.29;;
63692;Laerm;49838;51.798;10.954;2023-08-12T12:27:48;50.66;32.40;70.13;;
63692;Laerm;49838;51.798;10.954;2023-08-12T12:30:46;49.79;31.61;67.70;;
63692;Laerm;49838;51.798;10.954;2023-08-12T12:33:13;51.00;33.63;66.12;;
63692;Laerm;49838;51.798;10.954;2023-08-12T12:35:41;58.37;37.46;75.84;;
63692;Laerm;49838;51.798;10.954;2023-08-12T12:38:08;50.41;36.34;67.43;;
63692;Laerm;49838;51.798;10.954;2023-08-12T12:40:36;54.76;36.95;72.53;;
63692;Laerm;49838;51.798;10.954;2023-08-12T12:43:04;54.24;35.97;70.68;;
63692;Laerm;49838;51.798;10.954;2023-08-12T12:45:33;54.87;33.55;73.86;;
63692;Laerm;49838;51.798;10.954;2023-08-12T12:48:02;54.46;33.21;73.22;;
63692;Laerm;49838;51.798;10.954;2023-08-12T12:50:30;55.37;33.45;70.83;;
63692;Laerm;49838;51.798;10.954;2023-08-12T12:52:57;57.90;33.72;72.30;;
63692;Laerm;49838;51.798;10.954;2023-08-12T12:55:24;59.18;34.43;72.67;;
63692;Laerm;49838;51.798;10.954;2023-08-12T12:57:52;57.11;31.63;76.88;;
63692;Laerm;49838;51.798;10.954;2023-08-12T13:00:19;58.38;32.57;73.57;;
63692;Laerm;49838;51.798;10.954;2023-08-12T13:02:46;48.50;33.52;68.38;;
63692;Laerm;49838;51.798;10.954;2023-08-12T13:05:15;56.74;36.11;71.27;;
63692;Laerm;49838;51.798;10.954;2023-08-12T13:07:44;51.40;33.62;68.21;;
63692;Laerm;49838;51.798;10.954;2023-08-12T13:10:11;55.66;33.95;71.88;;
63692;Laerm;49838;51.798;10.954;2023-08-12T13:12:38;56.77;34.37;69.35;;
63692;Laerm;49838;51.798;10.954;2023-08-12T13:15:06;53.19;33.70;69.59;;
63692;Laerm;49838;51.798;10.954;2023-08-12T13:17:35;45.92;33.68;67.38;;
63692;Laerm;49838;51.798;10.954;2023-08-12T13:20:11;54.46;34.75;69.19;;
63692;Laerm;49838;51.798;10.954;2023-08-12T13:22:40;50.41;34.86;68.88;;
63692;Laerm;49838;51.798;10.954;2023-08-12T13:25:07;48.40;32.39;66.35;;
63692;Laerm;49838;51.798;10.954;2023-08-12T13:27:34;49.24;33.30;65.58;;
63692;Laerm;49838;51.798;10.954;2023-08-12T13:30:02;58.16;33.31;73.10;;
63692;Laerm;49838;51.798;10.954;2023-08-12T13:32:30;42.36;34.02;55.46;;
63692;Laerm;49838;51.798;10.954;2023-08-12T13:34:58;52.26;34.47;68.28;;
63692;Laerm;49838;51.798;10.954;2023-08-12T13:37:25;62.03;35.99;80.88;;
63692;Laerm;49838;51.798;10.954;2023-08-12T13:39:59;53.79;36.28;69.84;;
63692;Laerm;49838;51.798;10.954;2023-08-12T13:42:38;57.76;35.57;77.13;;
63692;Laerm;49838;51.798;10.954;2023-08-12T13:45:06;58.22;37.70;69.63;;
63692;Laerm;49838;51.798;10.954;2023-08-12T13:47:35;54.99;35.27;70.61;;
63692;Laerm;49838;51.798;10.954;2023-08-12T13:50:03;51.38;35.17;66.78;;